Swanton, Ohio
Current Conditions -  °F | °C
As of 6:52 PM on Saturday 25 Oct 2014 (Local Time) from KTOL Reporting Station
Clear Clear  
Wind Chill: 63°   Ceiling: Unl
Heat Index: 63°   Visibility: 10mi
Dew Point: 28°   Wind: 16mph
Humidity: 27%   Direction: 290°WNW
Pressure: 29.81"   Gusts: 23mph
Location:  41.59°N, 83.89°W
Report Text: KTOL 252252Z 29014G20KT 10SM CLR 17/M02 A2981 RMK AO2 PK WND 27026/2209 SLP094 T01721022
Loading
Personal Weather Stations






























Interactive Weather Map
Tropical Storm Tracking
New forecast layout! Learn more

10-Day Weather Forecast

Advertisements
Track Severe Weather on mobile